sensor_id;sensor_type;location;lat;lon;timestamp;P1;durP1;ratioP1;P2;durP2;ratioP2
1206;SDS011;593;53.184;8.216;2023-05-10T00:01:15;6.60;;;6.03;;
1206;SDS011;593;53.184;8.216;2023-05-10T00:03:40;7.20;;;6.50;;
1206;SDS011;593;53.184;8.216;2023-05-10T00:06:06;7.13;;;6.47;;
1206;SDS011;593;53.184;8.216;2023-05-10T00:08:31;7.10;;;6.50;;
1206;SDS011;593;53.184;8.216;2023-05-10T00:10:57;7.60;;;6.87;;
1206;SDS011;593;53.184;8.216;2023-05-10T00:13:22;6.93;;;6.23;;
1206;SDS011;593;53.184;8.216;2023-05-10T00:15:47;7.37;;;6.60;;
1206;SDS011;593;53.184;8.216;2023-05-10T00:18:13;6.83;;;6.23;;
1206;SDS011;593;53.184;8.216;2023-05-10T00:20:38;6.20;;;5.70;;
1206;SDS011;593;53.184;8.216;2023-05-10T00:23:03;7.10;;;6.50;;
1206;SDS011;593;53.184;8.216;2023-05-10T00:25:28;7.87;;;7.17;;
1206;SDS011;593;53.184;8.216;2023-05-10T00:27:54;7.07;;;6.37;;
1206;SDS011;593;53.184;8.216;2023-05-10T00:30:22;7.70;;;7.00;;
1206;SDS011;593;53.184;8.216;2023-05-10T00:32:47;7.07;;;6.40;;
1206;SDS011;593;53.184;8.216;2023-05-10T00:35:14;7.47;;;6.77;;
1206;SDS011;593;53.184;8.216;2023-05-10T00:37:40;7.47;;;6.77;;
1206;SDS011;593;53.184;8.216;2023-05-10T00:40:06;8.17;;;7.47;;
1206;SDS011;593;53.184;8.216;2023-05-10T00:42:32;7.10;;;6.40;;
1206;SDS011;593;53.184;8.216;2023-05-10T00:44:58;9.80;;;7.33;;
1206;SDS011;593;53.184;8.216;2023-05-10T00:47:23;7.27;;;6.50;;
1206;SDS011;593;53.184;8.216;2023-05-10T00:49:49;8.00;;;7.20;;
1206;SDS011;593;53.184;8.216;2023-05-10T00:52:14;8.70;;;7.80;;
1206;SDS011;593;53.184;8.216;2023-05-10T00:54:40;8.07;;;7.27;;
1206;SDS011;593;53.184;8.216;2023-05-10T00:57:06;8.50;;;7.70;;
1206;SDS011;593;53.184;8.216;2023-05-10T00:59:31;7.10;;;6.50;;
1206;SDS011;593;53.184;8.216;2023-05-10T01:01:57;6.50;;;5.90;;
1206;SDS011;593;53.184;8.216;2023-05-10T01:04:23;7.80;;;6.90;;
1206;SDS011;593;53.184;8.216;2023-05-10T01:06:50;7.87;;;7.07;;
1206;SDS011;593;53.184;8.216;2023-05-10T01:09:17;7.57;;;6.87;;
1206;SDS011;593;53.184;8.216;2023-05-10T01:11:43;7.43;;;6.73;;
1206;SDS011;593;53.184;8.216;2023-05-10T01:14:08;7.60;;;6.60;;
1206;SDS011;593;53.184;8.216;2023-05-10T01:16:36;7.90;;;7.20;;
1206;SDS011;593;53.184;8.216;2023-05-10T01:19:06;6.83;;;5.97;;
1206;SDS011;593;53.184;8.216;2023-05-10T01:21:43;7.23;;;6.50;;
1206;SDS011;593;53.184;8.216;2023-05-10T01:35:42;6.80;;;6.20;;
1206;SDS011;593;53.184;8.216;2023-05-10T01:43:33;6.93;;;6.40;;
1206;SDS011;593;53.184;8.216;2023-05-10T01:46:09;6.80;;;6.10;;
1206;SDS011;593;53.184;8.216;2023-05-10T01:48:52;7.37;;;6.67;;
1206;SDS011;593;53.184;8.216;2023-05-10T01:51:22;7.20;;;6.60;;
1206;SDS011;593;53.184;8.216;2023-05-10T01:53:51;7.40;;;6.70;;
1206;SDS011;593;53.184;8.216;2023-05-10T01:56:24;7.43;;;6.63;;
1206;SDS011;593;53.184;8.216;2023-05-10T01:58:51;7.23;;;6.50;;
1206;SDS011;593;53.184;8.216;2023-05-10T02:01:19;7.00;;;6.40;;
1206;SDS011;593;53.184;8.216;2023-05-10T02:03:46;7.90;;;7.30;;
1206;SDS011;593;53.184;8.216;2023-05-10T02:06:12;7.33;;;6.73;;
1206;SDS011;593;53.184;8.216;2023-05-10T02:08:40;6.80;;;6.20;;
1206;SDS011;593;53.184;8.216;2023-05-10T02:11:06;6.40;;;5.87;;
1206;SDS011;593;53.184;8.216;2023-05-10T02:13:32;7.30;;;6.60;;
1206;SDS011;593;53.184;8.216;2023-05-10T02:16:02;7.97;;;7.30;;
1206;SDS011;593;53.184;8.216;2023-05-10T02:18:29;6.70;;;6.13;;
1206;SDS011;593;53.184;8.216;2023-05-10T02:20:56;7.67;;;6.97;;
1206;SDS011;593;53.184;8.216;2023-05-10T02:23:23;7.73;;;7.00;;
1206;SDS011;593;53.184;8.216;2023-05-10T02:25:49;7.53;;;6.87;;
1206;SDS011;593;53.184;8.216;2023-05-10T02:28:18;7.13;;;6.53;;
1206;SDS011;593;53.184;8.216;2023-05-10T02:30:45;6.53;;;6.03;;
1206;SDS011;593;53.184;8.216;2023-05-10T02:33:12;6.60;;;6.03;;
1206;SDS011;593;53.184;8.216;2023-05-10T02:35:39;7.10;;;6.50;;
1206;SDS011;593;53.184;8.216;2023-05-10T02:38:05;8.67;;;7.10;;
1206;SDS011;593;53.184;8.216;2023-05-10T02:40:32;6.70;;;6.10;;
1206;SDS011;593;53.184;8.216;2023-05-10T02:42:59;7.73;;;6.97;;
1206;SDS011;593;53.184;8.216;2023-05-10T02:45:27;5.90;;;5.40;;
1206;SDS011;593;53.184;8.216;2023-05-10T02:47:55;5.87;;;5.27;;
1206;SDS011;593;53.184;8.216;2023-05-10T02:50:21;6.20;;;5.67;;
1206;SDS011;593;53.184;8.216;2023-05-10T02:52:49;6.83;;;5.70;;
1206;SDS011;593;53.184;8.216;2023-05-10T02:55:17;6.50;;;5.90;;
1206;SDS011;593;53.184;8.216;2023-05-10T02:57:48;6.20;;;5.60;;
1206;SDS011;593;53.184;8.216;2023-05-10T03:00:17;7.00;;;6.40;;
1206;SDS011;593;53.184;8.216;2023-05-10T03:02:43;6.50;;;5.93;;
1206;SDS011;593;53.184;8.216;2023-05-10T03:05:08;7.10;;;6.40;;
1206;SDS011;593;53.184;8.216;2023-05-10T03:07:33;6.07;;;5.57;;
1206;SDS011;593;53.184;8.216;2023-05-10T03:09:59;8.93;;;5.57;;
1206;SDS011;593;53.184;8.216;2023-05-10T03:17:52;6.07;;;5.57;;
1206;SDS011;593;53.184;8.216;2023-05-10T03:20:24;6.93;;;6.33;;
1206;SDS011;593;53.184;8.216;2023-05-10T03:22:53;7.17;;;6.47;;
1206;SDS011;593;53.184;8.216;2023-05-10T03:25:22;6.80;;;6.00;;
1206;SDS011;593;53.184;8.216;2023-05-10T03:27:48;6.37;;;5.80;;
1206;SDS011;593;53.184;8.216;2023-05-10T03:30:14;7.30;;;6.60;;
1206;SDS011;593;53.184;8.216;2023-05-10T03:32:41;8.00;;;7.20;;
1206;SDS011;593;53.184;8.216;2023-05-10T03:35:09;6.53;;;5.93;;
1206;SDS011;593;53.184;8.216;2023-05-10T03:37:36;6.70;;;6.10;;
1206;SDS011;593;53.184;8.216;2023-05-10T03:40:02;7.20;;;6.50;;
1206;SDS011;593;53.184;8.216;2023-05-10T03:42:27;7.80;;;6.90;;
1206;SDS011;593;53.184;8.216;2023-05-10T03:44:53;7.10;;;6.50;;
1206;SDS011;593;53.184;8.216;2023-05-10T03:47:18;8.33;;;7.53;;
1206;SDS011;593;53.184;8.216;2023-05-10T03:49:44;7.67;;;6.97;;
1206;SDS011;593;53.184;8.216;2023-05-10T03:52:10;8.67;;;7.87;;
1206;SDS011;593;53.184;8.216;2023-05-10T03:54:35;8.43;;;7.60;;
1206;SDS011;593;53.184;8.216;2023-05-10T03:57:00;8.33;;;6.67;;
1206;SDS011;593;53.184;8.216;2023-05-10T03:59:26;9.33;;;8.37;;
1206;SDS011;593;53.184;8.216;2023-05-10T04:01:51;8.47;;;7.67;;
1206;SDS011;593;53.184;8.216;2023-05-10T04:04:17;8.03;;;7.33;;
1206;SDS011;593;53.184;8.216;2023-05-10T04:06:43;9.40;;;7.83;;
1206;SDS011;593;53.184;8.216;2023-05-10T04:09:09;8.07;;;7.27;;
1206;SDS011;593;53.184;8.216;2023-05-10T04:11:34;9.50;;;8.10;;
1206;SDS011;593;53.184;8.216;2023-05-10T04:14:00;9.20;;;8.30;;
1206;SDS011;593;53.184;8.216;2023-05-10T04:16:25;9.00;;;8.10;;
1206;SDS011;593;53.184;8.216;2023-05-10T04:18:50;10.87;;;6.77;;
1206;SDS011;593;53.184;8.216;2023-05-10T04:21:16;7.33;;;6.67;;
1206;SDS011;593;53.184;8.216;2023-05-10T04:23:41;5.57;;;5.07;;
1206;SDS011;593;53.184;8.216;2023-05-10T04:26:06;4.77;;;4.37;;
1206;SDS011;593;53.184;8.216;2023-05-10T04:28:32;5.03;;;4.30;;
1206;SDS011;593;53.184;8.216;2023-05-10T04:31:01;3.67;;;3.37;;
1206;SDS011;593;53.184;8.216;2023-05-10T04:33:33;2.10;;;2.00;;
1206;SDS011;593;53.184;8.216;2023-05-10T04:35:59;2.50;;;2.30;;
1206;SDS011;593;53.184;8.216;2023-05-10T04:38:25;2.37;;;2.17;;
1206;SDS011;593;53.184;8.216;2023-05-10T04:40:51;1.83;;;1.53;;
1206;SDS011;593;53.184;8.216;2023-05-10T04:43:17;2.90;;;2.20;;
1206;SDS011;593;53.184;8.216;2023-05-10T04:45:42;2.23;;;2.03;;
1206;SDS011;593;53.184;8.216;2023-05-10T04:48:08;2.10;;;1.90;;
1206;SDS011;593;53.184;8.216;2023-05-10T04:50:33;3.90;;;2.80;;
1206;SDS011;593;53.184;8.216;2023-05-10T04:52:58;2.40;;;2.20;;
1206;SDS011;593;53.184;8.216;2023-05-10T04:55:24;3.10;;;2.10;;
1206;SDS011;593;53.184;8.216;2023-05-10T04:57:49;1.33;;;1.00;;
1206;SDS011;593;53.184;8.216;2023-05-10T05:00:15;1.10;;;1.00;;
1206;SDS011;593;53.184;8.216;2023-05-10T05:02:45;1.30;;;0.60;;
1206;SDS011;593;53.184;8.216;2023-05-10T05:05:10;0.80;;;0.70;;
1206;SDS011;593;53.184;8.216;2023-05-10T05:07:36;1.50;;;0.97;;
1206;SDS011;593;53.184;8.216;2023-05-10T05:10:03;1.73;;;1.60;;
1206;SDS011;593;53.184;8.216;2023-05-10T05:12:29;1.60;;;1.40;;
1206;SDS011;593;53.184;8.216;2023-05-10T05:14:55;1.23;;;1.13;;
1206;SDS011;593;53.184;8.216;2023-05-10T05:17:21;3.00;;;2.30;;
1206;SDS011;593;53.184;8.216;2023-05-10T05:19:49;1.83;;;1.57;;
1206;SDS011;593;53.184;8.216;2023-05-10T05:22:14;2.90;;;2.00;;
1206;SDS011;593;53.184;8.216;2023-05-10T05:24:39;2.67;;;2.43;;
1206;SDS011;593;53.184;8.216;2023-05-10T05:27:05;2.23;;;2.03;;
1206;SDS011;593;53.184;8.216;2023-05-10T05:29:30;2.50;;;2.30;;
1206;SDS011;593;53.184;8.216;2023-05-10T05:31:56;1.97;;;1.80;;
1206;SDS011;593;53.184;8.216;2023-05-10T05:34:21;3.23;;;2.10;;
1206;SDS011;593;53.184;8.216;2023-05-10T05:36:47;2.50;;;2.30;;
1206;SDS011;593;53.184;8.216;2023-05-10T05:39:12;2.73;;;2.40;;
1206;SDS011;593;53.184;8.216;2023-05-10T05:41:38;3.43;;;2.60;;
1206;SDS011;593;53.184;8.216;2023-05-10T05:44:03;2.83;;;2.60;;
1206;SDS011;593;53.184;8.216;2023-05-10T05:46:28;2.13;;;1.90;;
1206;SDS011;593;53.184;8.216;2023-05-10T05:48:54;3.00;;;2.80;;
1206;SDS011;593;53.184;8.216;2023-05-10T05:51:19;3.97;;;3.57;;
1206;SDS011;593;53.184;8.216;2023-05-10T05:53:45;3.63;;;3.23;;
1206;SDS011;593;53.184;8.216;2023-05-10T05:56:10;2.77;;;2.43;;
1206;SDS011;593;53.184;8.216;2023-05-10T05:58:35;3.20;;;2.90;;
1206;SDS011;593;53.184;8.216;2023-05-10T06:01:01;4.60;;;2.70;;
1206;SDS011;593;53.184;8.216;2023-05-10T06:03:26;3.40;;;2.80;;
1206;SDS011;593;53.184;8.216;2023-05-10T06:05:51;2.97;;;2.77;;
1206;SDS011;593;53.184;8.216;2023-05-10T06:08:16;3.87;;;3.50;;
1206;SDS011;593;53.184;8.216;2023-05-10T06:10:42;4.13;;;3.30;;
1206;SDS011;593;53.184;8.216;2023-05-10T06:13:07;3.63;;;3.03;;
1206;SDS011;593;53.184;8.216;2023-05-10T06:15:32;2.87;;;2.63;;
1206;SDS011;593;53.184;8.216;2023-05-10T06:17:58;3.10;;;2.67;;
1206;SDS011;593;53.184;8.216;2023-05-10T06:20:23;3.50;;;3.20;;
1206;SDS011;593;53.184;8.216;2023-05-10T06:22:48;4.20;;;3.50;;
1206;SDS011;593;53.184;8.216;2023-05-10T06:25:14;4.03;;;3.50;;
1206;SDS011;593;53.184;8.216;2023-05-10T06:27:39;3.93;;;3.63;;
1206;SDS011;593;53.184;8.216;2023-05-10T06:30:05;3.90;;;3.50;;
1206;SDS011;593;53.184;8.216;2023-05-10T06:32:31;3.47;;;2.73;;
1206;SDS011;593;53.184;8.216;2023-05-10T06:34:56;4.10;;;3.70;;
1206;SDS011;593;53.184;8.216;2023-05-10T06:37:21;3.20;;;2.90;;
1206;SDS011;593;53.184;8.216;2023-05-10T06:39:47;3.70;;;3.40;;
1206;SDS011;593;53.184;8.216;2023-05-10T06:42:12;3.77;;;3.47;;
1206;SDS011;593;53.184;8.216;2023-05-10T06:44:37;3.07;;;2.77;;
1206;SDS011;593;53.184;8.216;2023-05-10T06:47:03;4.13;;;3.80;;
1206;SDS011;593;53.184;8.216;2023-05-10T06:49:28;3.40;;;3.13;;
1206;SDS011;593;53.184;8.216;2023-05-10T06:51:54;4.10;;;3.70;;
1206;SDS011;593;53.184;8.216;2023-05-10T06:54:20;3.90;;;3.60;;
1206;SDS011;593;53.184;8.216;2023-05-10T06:56:46;4.50;;;4.10;;
1206;SDS011;593;53.184;8.216;2023-05-10T06:59:11;3.63;;;3.33;;
1206;SDS011;593;53.184;8.216;2023-05-10T07:01:38;4.50;;;4.10;;
1206;SDS011;593;53.184;8.216;2023-05-10T07:04:03;4.50;;;4.00;;
1206;SDS011;593;53.184;8.216;2023-05-10T07:06:29;4.53;;;4.00;;
1206;SDS011;593;53.184;8.216;2023-05-10T07:08:54;4.77;;;4.27;;
1206;SDS011;593;53.184;8.216;2023-05-10T07:11:20;4.20;;;3.80;;
1206;SDS011;593;53.184;8.216;2023-05-10T07:13:45;4.17;;;3.77;;
1206;SDS011;593;53.184;8.216;2023-05-10T07:16:11;4.70;;;4.30;;
1206;SDS011;593;53.184;8.216;2023-05-10T07:18:37;3.43;;;3.13;;
1206;SDS011;593;53.184;8.216;2023-05-10T07:21:02;3.90;;;3.60;;
1206;SDS011;593;53.184;8.216;2023-05-10T07:23:28;3.87;;;3.50;;
1206;SDS011;593;53.184;8.216;2023-05-10T07:25:54;3.90;;;3.53;;
1206;SDS011;593;53.184;8.216;2023-05-10T07:28:19;3.90;;;3.50;;
1206;SDS011;593;53.184;8.216;2023-05-10T07:30:45;3.80;;;3.50;;
1206;SDS011;593;53.184;8.216;2023-05-10T07:33:11;4.33;;;3.93;;
1206;SDS011;593;53.184;8.216;2023-05-10T07:35:39;4.00;;;3.40;;
1206;SDS011;593;53.184;8.216;2023-05-10T07:38:05;4.97;;;3.60;;
1206;SDS011;593;53.184;8.216;2023-05-10T07:40:30;4.10;;;3.73;;
1206;SDS011;593;53.184;8.216;2023-05-10T07:42:56;4.73;;;3.33;;
1206;SDS011;593;53.184;8.216;2023-05-10T07:45:22;4.07;;;3.73;;
1206;SDS011;593;53.184;8.216;2023-05-10T07:47:48;3.47;;;3.03;;
1206;SDS011;593;53.184;8.216;2023-05-10T07:50:13;6.43;;;4.07;;
1206;SDS011;593;53.184;8.216;2023-05-10T07:52:39;4.90;;;3.63;;
1206;SDS011;593;53.184;8.216;2023-05-10T07:55:04;4.03;;;3.30;;
1206;SDS011;593;53.184;8.216;2023-05-10T07:57:30;3.60;;;3.30;;
1206;SDS011;593;53.184;8.216;2023-05-10T07:59:56;3.60;;;3.30;;
1206;SDS011;593;53.184;8.216;2023-05-10T08:02:21;3.43;;;3.17;;
1206;SDS011;593;53.184;8.216;2023-05-10T08:04:46;3.53;;;3.20;;
1206;SDS011;593;53.184;8.216;2023-05-10T08:07:12;3.60;;;3.30;;
1206;SDS011;593;53.184;8.216;2023-05-10T08:09:37;3.03;;;2.73;;
1206;SDS011;593;53.184;8.216;2023-05-10T08:12:02;3.20;;;3.00;;
1206;SDS011;593;53.184;8.216;2023-05-10T08:14:28;4.37;;;2.80;;
1206;SDS011;593;53.184;8.216;2023-05-10T08:16:54;2.60;;;2.20;;
1206;SDS011;593;53.184;8.216;2023-05-10T08:19:20;3.30;;;2.70;;
1206;SDS011;593;53.184;8.216;2023-05-10T08:21:46;2.27;;;2.10;;
1206;SDS011;593;53.184;8.216;2023-05-10T08:24:12;2.60;;;2.30;;
1206;SDS011;593;53.184;8.216;2023-05-10T08:26:38;2.90;;;2.23;;
1206;SDS011;593;53.184;8.216;2023-05-10T08:29:03;2.53;;;2.33;;
1206;SDS011;593;53.184;8.216;2023-05-10T08:31:28;2.43;;;2.07;;
1206;SDS011;593;53.184;8.216;2023-05-10T08:33:54;2.10;;;2.00;;
1206;SDS011;593;53.184;8.216;2023-05-10T08:36:20;2.30;;;2.07;;
1206;SDS011;593;53.184;8.216;2023-05-10T08:38:53;3.37;;;2.60;;
1206;SDS011;593;53.184;8.216;2023-05-10T08:41:22;2.33;;;2.10;;
1206;SDS011;593;53.184;8.216;2023-05-10T08:43:51;2.23;;;2.03;;
1206;SDS011;593;53.184;8.216;2023-05-10T08:46:18;2.93;;;2.07;;
1206;SDS011;593;53.184;8.216;2023-05-10T08:48:44;1.63;;;1.53;;
1206;SDS011;593;53.184;8.216;2023-05-10T08:51:14;1.50;;;1.40;;
1206;SDS011;593;53.184;8.216;2023-05-10T08:53:42;2.57;;;1.67;;
1206;SDS011;593;53.184;8.216;2023-05-10T08:56:09;2.33;;;1.60;;
1206;SDS011;593;53.184;8.216;2023-05-10T08:58:35;1.80;;;1.70;;
1206;SDS011;593;53.184;8.216;2023-05-10T09:01:01;1.60;;;1.50;;
1206;SDS011;593;53.184;8.216;2023-05-10T09:03:28;5.63;;;1.90;;
1206;SDS011;593;53.184;8.216;2023-05-10T09:05:54;1.40;;;1.30;;
1206;SDS011;593;53.184;8.216;2023-05-10T09:08:20;2.23;;;1.53;;
1206;SDS011;593;53.184;8.216;2023-05-10T09:10:50;1.70;;;1.13;;
1206;SDS011;593;53.184;8.216;2023-05-10T09:13:16;1.40;;;1.30;;
1206;SDS011;593;53.184;8.216;2023-05-10T09:15:43;1.40;;;1.23;;
1206;SDS011;593;53.184;8.216;2023-05-10T09:18:09;1.97;;;1.67;;
1206;SDS011;593;53.184;8.216;2023-05-10T09:20:35;2.70;;;1.60;;
1206;SDS011;593;53.184;8.216;2023-05-10T09:23:00;1.20;;;1.10;;
1206;SDS011;593;53.184;8.216;2023-05-10T09:25:26;1.47;;;1.37;;
1206;SDS011;593;53.184;8.216;2023-05-10T09:27:51;1.53;;;1.43;;
1206;SDS011;593;53.184;8.216;2023-05-10T09:30:24;3.63;;;1.77;;
1206;SDS011;593;53.184;8.216;2023-05-10T09:32:51;2.20;;;1.20;;
1206;SDS011;593;53.184;8.216;2023-05-10T09:35:18;1.30;;;1.20;;
1206;SDS011;593;53.184;8.216;2023-05-10T09:37:46;1.23;;;1.13;;
1206;SDS011;593;53.184;8.216;2023-05-10T09:40:17;1.53;;;0.90;;
1206;SDS011;593;53.184;8.216;2023-05-10T09:42:57;3.30;;;1.60;;
1206;SDS011;593;53.184;8.216;2023-05-10T09:45:23;1.53;;;1.27;;
1206;SDS011;593;53.184;8.216;2023-05-10T09:47:50;1.10;;;1.00;;
1206;SDS011;593;53.184;8.216;2023-05-10T09:50:15;1.20;;;1.00;;
1206;SDS011;593;53.184;8.216;2023-05-10T09:55:22;1.60;;;1.50;;
1206;SDS011;593;53.184;8.216;2023-05-10T09:57:49;1.57;;;1.47;;
1206;SDS011;593;53.184;8.216;2023-05-10T10:00:23;1.60;;;1.50;;
1206;SDS011;593;53.184;8.216;2023-05-10T10:02:58;1.37;;;1.27;;
1206;SDS011;593;53.184;8.216;2023-05-10T10:05:28;1.37;;;1.27;;
1206;SDS011;593;53.184;8.216;2023-05-10T10:07:57;1.33;;;1.23;;
1206;SDS011;593;53.184;8.216;2023-05-10T10:10:24;1.30;;;1.20;;
1206;SDS011;593;53.184;8.216;2023-05-10T10:12:50;2.20;;;1.30;;
1206;SDS011;593;53.184;8.216;2023-05-10T10:15:16;1.73;;;1.33;;
1206;SDS011;593;53.184;8.216;2023-05-10T10:17:42;1.30;;;1.20;;
1206;SDS011;593;53.184;8.216;2023-05-10T10:20:09;3.43;;;0.90;;
1206;SDS011;593;53.184;8.216;2023-05-10T10:22:36;1.20;;;1.10;;
1206;SDS011;593;53.184;8.216;2023-05-10T10:25:01;0.70;;;0.70;;
1206;SDS011;593;53.184;8.216;2023-05-10T10:30:03;0.80;;;0.60;;
1206;SDS011;593;53.184;8.216;2023-05-10T10:35:50;0.80;;;0.50;;
1206;SDS011;593;53.184;8.216;2023-05-10T10:38:18;0.60;;;0.50;;
1206;SDS011;593;53.184;8.216;2023-05-10T10:40:43;0.53;;;0.40;;
1206;SDS011;593;53.184;8.216;2023-05-10T10:48:35;0.50;;;0.40;;
1206;SDS011;593;53.184;8.216;2023-05-10T10:51:00;0.50;;;0.40;;
1206;SDS011;593;53.184;8.216;2023-05-10T10:53:26;2.30;;;0.47;;
1206;SDS011;593;53.184;8.216;2023-05-10T10:56:02;0.60;;;0.40;;
1206;SDS011;593;53.184;8.216;2023-05-10T10:58:31;0.77;;;0.50;;
1206;SDS011;593;53.184;8.216;2023-05-10T11:01:10;0.50;;;0.30;;
1206;SDS011;593;53.184;8.216;2023-05-10T11:03:37;0.80;;;0.50;;
1206;SDS011;593;53.184;8.216;2023-05-10T11:06:02;0.60;;;0.40;;
1206;SDS011;593;53.184;8.216;2023-05-10T11:08:31;0.50;;;0.40;;
1206;SDS011;593;53.184;8.216;2023-05-10T11:13:30;1.33;;;0.40;;
1206;SDS011;593;53.184;8.216;2023-05-10T11:16:21;0.63;;;0.40;;
1206;SDS011;593;53.184;8.216;2023-05-10T11:18:52;0.60;;;0.50;;
1206;SDS011;593;53.184;8.216;2023-05-10T11:21:44;1.13;;;0.50;;
1206;SDS011;593;53.184;8.216;2023-05-10T11:24:18;0.60;;;0.43;;
1206;SDS011;593;53.184;8.216;2023-05-10T11:26:45;0.60;;;0.50;;
1206;SDS011;593;53.184;8.216;2023-05-10T11:29:12;0.60;;;0.50;;
1206;SDS011;593;53.184;8.216;2023-05-10T11:31:42;1.53;;;0.70;;
1206;SDS011;593;53.184;8.216;2023-05-10T11:34:08;1.00;;;0.67;;
1206;SDS011;593;53.184;8.216;2023-05-10T11:36:35;1.80;;;1.03;;
1206;SDS011;593;53.184;8.216;2023-05-10T11:39:01;0.80;;;0.80;;
1206;SDS011;593;53.184;8.216;2023-05-10T11:41:28;1.60;;;0.80;;
1206;SDS011;593;53.184;8.216;2023-05-10T11:43:55;3.67;;;1.80;;
1206;SDS011;593;53.184;8.216;2023-05-10T11:46:22;2.50;;;1.27;;
1206;SDS011;593;53.184;8.216;2023-05-10T11:48:49;2.17;;;1.30;;
1206;SDS011;593;53.184;8.216;2023-05-10T11:51:23;1.40;;;1.30;;
1206;SDS011;593;53.184;8.216;2023-05-10T11:53:50;2.33;;;1.47;;
1206;SDS011;593;53.184;8.216;2023-05-10T11:56:18;3.07;;;1.97;;
1206;SDS011;593;53.184;8.216;2023-05-10T11:58:43;3.00;;;2.50;;
1206;SDS011;593;53.184;8.216;2023-05-10T12:01:09;2.60;;;2.50;;
1206;SDS011;593;53.184;8.216;2023-05-10T12:03:35;3.13;;;2.93;;
1206;SDS011;593;53.184;8.216;2023-05-10T12:06:02;3.80;;;3.50;;
1206;SDS011;593;53.184;8.216;2023-05-10T12:08:28;3.53;;;2.57;;
1206;SDS011;593;53.184;8.216;2023-05-10T12:11:08;4.10;;;3.80;;
1206;SDS011;593;53.184;8.216;2023-05-10T12:13:38;3.53;;;3.23;;
1206;SDS011;593;53.184;8.216;2023-05-10T12:16:14;4.00;;;3.70;;
1206;SDS011;593;53.184;8.216;2023-05-10T12:18:41;3.97;;;3.67;;
1206;SDS011;593;53.184;8.216;2023-05-10T12:21:10;3.77;;;3.47;;
1206;SDS011;593;53.184;8.216;2023-05-10T12:23:37;3.40;;;3.20;;
1206;SDS011;593;53.184;8.216;2023-05-10T12:26:03;4.30;;;4.00;;
1206;SDS011;593;53.184;8.216;2023-05-10T12:28:30;4.07;;;3.77;;
1206;SDS011;593;53.184;8.216;2023-05-10T12:30:55;3.50;;;3.20;;
1206;SDS011;593;53.184;8.216;2023-05-10T12:33:22;4.10;;;3.70;;
1206;SDS011;593;53.184;8.216;2023-05-10T12:35:48;3.80;;;3.50;;
1206;SDS011;593;53.184;8.216;2023-05-10T12:38:24;4.63;;;4.23;;
1206;SDS011;593;53.184;8.216;2023-05-10T12:41:12;5.37;;;4.97;;
1206;SDS011;593;53.184;8.216;2023-05-10T12:43:38;5.13;;;4.67;;
1206;SDS011;593;53.184;8.216;2023-05-10T12:46:08;3.63;;;3.30;;
1206;SDS011;593;53.184;8.216;2023-05-10T12:48:38;4.17;;;3.80;;
1206;SDS011;593;53.184;8.216;2023-05-10T12:51:04;3.10;;;2.90;;
1206;SDS011;593;53.184;8.216;2023-05-10T12:53:34;3.60;;;3.40;;
1206;SDS011;593;53.184;8.216;2023-05-10T12:56:00;3.93;;;3.50;;
1206;SDS011;593;53.184;8.216;2023-05-10T12:58:33;3.80;;;3.37;;
1206;SDS011;593;53.184;8.216;2023-05-10T13:00:59;3.37;;;3.10;;
1206;SDS011;593;53.184;8.216;2023-05-10T13:03:25;4.23;;;3.10;;
1206;SDS011;593;53.184;8.216;2023-05-10T13:05:50;2.93;;;2.73;;
1206;SDS011;593;53.184;8.216;2023-05-10T13:08:16;2.87;;;2.67;;
1206;SDS011;593;53.184;8.216;2023-05-10T13:10:53;3.00;;;2.80;;
1206;SDS011;593;53.184;8.216;2023-05-10T13:13:18;2.70;;;2.50;;
1206;SDS011;593;53.184;8.216;2023-05-10T13:15:44;3.57;;;3.27;;
1206;SDS011;593;53.184;8.216;2023-05-10T13:18:09;3.10;;;2.90;;
1206;SDS011;593;53.184;8.216;2023-05-10T13:20:34;2.93;;;2.73;;
1206;SDS011;593;53.184;8.216;2023-05-10T13:23:00;2.47;;;2.37;;
1206;SDS011;593;53.184;8.216;2023-05-10T13:25:26;3.20;;;3.00;;
1206;SDS011;593;53.184;8.216;2023-05-10T13:27:51;2.57;;;2.47;;
1206;SDS011;593;53.184;8.216;2023-05-10T13:30:16;3.17;;;2.97;;
1206;SDS011;593;53.184;8.216;2023-05-10T13:32:41;4.17;;;2.70;;
1206;SDS011;593;53.184;8.216;2023-05-10T13:35:07;2.70;;;2.50;;
1206;SDS011;593;53.184;8.216;2023-05-10T13:37:32;3.20;;;3.00;;
1206;SDS011;593;53.184;8.216;2023-05-10T13:40:01;3.47;;;3.17;;
1206;SDS011;593;53.184;8.216;2023-05-10T13:42:26;3.53;;;2.90;;
1206;SDS011;593;53.184;8.216;2023-05-10T13:44:52;5.90;;;2.00;;
1206;SDS011;593;53.184;8.216;2023-05-10T13:47:17;2.97;;;2.37;;
1206;SDS011;593;53.184;8.216;2023-05-10T13:49:43;2.17;;;2.00;;
1206;SDS011;593;53.184;8.216;2023-05-10T13:52:08;2.00;;;1.90;;
1206;SDS011;593;53.184;8.216;2023-05-10T13:54:35;2.10;;;2.00;;
1206;SDS011;593;53.184;8.216;2023-05-10T13:57:03;1.80;;;1.70;;
1206;SDS011;593;53.184;8.216;2023-05-10T13:59:29;2.20;;;2.10;;
1206;SDS011;593;53.184;8.216;2023-05-10T14:01:56;1.80;;;1.70;;
1206;SDS011;593;53.184;8.216;2023-05-10T14:04:22;2.27;;;2.17;;
1206;SDS011;593;53.184;8.216;2023-05-10T14:06:47;1.90;;;1.70;;
1206;SDS011;593;53.184;8.216;2023-05-10T14:09:13;2.07;;;1.97;;
1206;SDS011;593;53.184;8.216;2023-05-10T14:11:38;1.90;;;1.70;;
1206;SDS011;593;53.184;8.216;2023-05-10T14:14:07;1.97;;;1.73;;
1206;SDS011;593;53.184;8.216;2023-05-10T14:16:33;1.60;;;1.50;;
1206;SDS011;593;53.184;8.216;2023-05-10T14:18:58;2.10;;;1.80;;
1206;SDS011;593;53.184;8.216;2023-05-10T14:21:24;1.60;;;1.50;;
1206;SDS011;593;53.184;8.216;2023-05-10T14:23:49;1.60;;;1.50;;
1206;SDS011;593;53.184;8.216;2023-05-10T14:26:15;1.43;;;1.23;;
1206;SDS011;593;53.184;8.216;2023-05-10T14:28:40;1.53;;;1.43;;
1206;SDS011;593;53.184;8.216;2023-05-10T14:31:05;1.97;;;1.30;;
1206;SDS011;593;53.184;8.216;2023-05-10T14:33:31;1.73;;;1.23;;
1206;SDS011;593;53.184;8.216;2023-05-10T14:35:56;1.13;;;1.03;;
1206;SDS011;593;53.184;8.216;2023-05-10T14:38:22;1.80;;;1.70;;
1206;SDS011;593;53.184;8.216;2023-05-10T14:40:47;1.40;;;1.30;;
1206;SDS011;593;53.184;8.216;2023-05-10T14:43:13;1.50;;;1.40;;
1206;SDS011;593;53.184;8.216;2023-05-10T14:45:38;1.47;;;1.37;;
1206;SDS011;593;53.184;8.216;2023-05-10T14:48:03;1.30;;;1.20;;
1206;SDS011;593;53.184;8.216;2023-05-10T14:50:29;1.23;;;0.80;;
1206;SDS011;593;53.184;8.216;2023-05-10T14:52:56;1.10;;;1.00;;
1206;SDS011;593;53.184;8.216;2023-05-10T14:55:21;2.30;;;1.17;;
1206;SDS011;593;53.184;8.216;2023-05-10T14:57:47;0.83;;;0.83;;
1206;SDS011;593;53.184;8.216;2023-05-10T15:00:14;3.30;;;1.17;;
1206;SDS011;593;53.184;8.216;2023-05-10T15:02:40;1.10;;;1.00;;
1206;SDS011;593;53.184;8.216;2023-05-10T15:05:06;2.60;;;0.90;;
1206;SDS011;593;53.184;8.216;2023-05-10T15:07:32;1.20;;;1.10;;
1206;SDS011;593;53.184;8.216;2023-05-10T15:09:57;2.37;;;1.23;;
1206;SDS011;593;53.184;8.216;2023-05-10T15:12:23;1.77;;;1.10;;
1206;SDS011;593;53.184;8.216;2023-05-10T15:14:48;1.13;;;0.90;;
1206;SDS011;593;53.184;8.216;2023-05-10T15:17:13;2.30;;;1.10;;
1206;SDS011;593;53.184;8.216;2023-05-10T15:19:39;1.00;;;1.00;;
1206;SDS011;593;53.184;8.216;2023-05-10T15:22:04;2.40;;;1.30;;
1206;SDS011;593;53.184;8.216;2023-05-10T15:24:30;1.00;;;0.90;;
1206;SDS011;593;53.184;8.216;2023-05-10T15:26:55;1.20;;;1.10;;
1206;SDS011;593;53.184;8.216;2023-05-10T15:29:20;0.70;;;0.70;;
1206;SDS011;593;53.184;8.216;2023-05-10T15:31:46;0.93;;;0.80;;
1206;SDS011;593;53.184;8.216;2023-05-10T15:34:13;0.83;;;0.83;;
1206;SDS011;593;53.184;8.216;2023-05-10T15:36:38;1.40;;;0.93;;
1206;SDS011;593;53.184;8.216;2023-05-10T15:39:03;2.33;;;0.77;;
1206;SDS011;593;53.184;8.216;2023-05-10T15:41:29;1.27;;;1.00;;
1206;SDS011;593;53.184;8.216;2023-05-10T15:43:55;1.47;;;0.90;;
1206;SDS011;593;53.184;8.216;2023-05-10T15:46:20;0.90;;;0.90;;
1206;SDS011;593;53.184;8.216;2023-05-10T15:48:45;1.53;;;1.00;;
1206;SDS011;593;53.184;8.216;2023-05-10T15:51:11;1.20;;;1.10;;
1206;SDS011;593;53.184;8.216;2023-05-10T15:53:36;1.27;;;1.00;;
1206;SDS011;593;53.184;8.216;2023-05-10T15:56:01;1.37;;;1.27;;
1206;SDS011;593;53.184;8.216;2023-05-10T15:58:26;1.10;;;0.90;;
1206;SDS011;593;53.184;8.216;2023-05-10T16:00:52;1.27;;;1.17;;
1206;SDS011;593;53.184;8.216;2023-05-10T16:03:17;1.40;;;1.30;;
1206;SDS011;593;53.184;8.216;2023-05-10T16:05:42;1.57;;;1.47;;